createdAt,value
2018-05-25T00:00:00.272Z,2.30
2018-05-25T00:02:27.835Z,1.90
2018-05-25T00:04:55.329Z,4.60
2018-05-25T00:07:22.818Z,2.67
2018-05-25T00:09:50.346Z,2.00
2018-05-25T00:12:17.834Z,1.30
2018-05-25T00:14:45.343Z,1.90
2018-05-25T00:17:12.882Z,2.63
2018-05-25T00:19:40.382Z,3.33
2018-05-25T00:22:07.872Z,2.40
2018-05-25T00:24:35.430Z,1.20
2018-05-25T00:27:02.924Z,2.73
2018-05-25T00:29:30.422Z,1.00
2018-05-25T00:31:58.977Z,2.03
2018-05-25T00:34:26.471Z,2.47
2018-05-25T00:36:53.969Z,2.53
2018-05-25T00:39:21.494Z,1.60
2018-05-25T00:41:48.978Z,2.40
2018-05-25T00:44:16.466Z,1.50
2018-05-25T00:46:44.063Z,1.10
2018-05-25T00:49:11.562Z,2.47
2018-05-25T00:51:39.092Z,1.27
2018-05-25T00:54:06.594Z,1.00
2018-05-25T00:56:34.086Z,1.93
2018-05-25T00:59:01.575Z,1.07
2018-05-25T01:01:29.099Z,1.47
2018-05-25T01:03:56.593Z,2.50
2018-05-25T01:06:24.087Z,1.30
2018-05-25T01:08:51.623Z,0.83
2018-05-25T01:11:19.108Z,1.77
2018-05-25T01:13:46.616Z,2.07
2018-05-25T01:16:14.211Z,0.83
2018-05-25T01:18:41.699Z,0.93
2018-05-25T01:21:09.195Z,2.67
2018-05-25T01:23:36.722Z,2.00
2018-05-25T01:26:04.229Z,0.87
2018-05-25T01:28:31.714Z,2.57
2018-05-25T01:30:59.231Z,1.43
2018-05-25T01:33:26.718Z,2.57
2018-05-25T01:35:54.207Z,1.17
2018-05-25T01:38:21.753Z,1.50
2018-05-25T01:40:49.244Z,1.23
2018-05-25T01:43:16.759Z,1.20
2018-05-25T01:45:44.335Z,1.60
2018-05-25T01:48:11.828Z,0.90
2018-05-25T01:50:39.342Z,1.30
2018-05-25T01:53:07.632Z,1.53
2018-05-25T01:55:35.129Z,1.80
2018-05-25T01:58:02.623Z,2.40
2018-05-25T02:00:30.154Z,1.80
2018-05-25T02:02:57.639Z,1.67
2018-05-25T02:05:25.146Z,1.20
2018-05-25T02:07:52.698Z,1.50
2018-05-25T02:10:20.182Z,2.40
2018-05-25T02:12:47.680Z,2.53
2018-05-25T02:15:15.206Z,1.03
2018-05-25T02:17:42.781Z,0.90
2018-05-25T02:20:10.269Z,1.47
2018-05-25T02:22:37.794Z,1.30
2018-05-25T02:25:05.282Z,1.17
2018-05-25T02:27:32.763Z,2.70
2018-05-25T02:30:01.060Z,1.30
2018-05-25T02:32:28.555Z,2.43
2018-05-25T02:34:56.042Z,3.13
2018-05-25T02:37:23.598Z,0.93
2018-05-25T02:39:51.082Z,1.10
2018-05-25T02:42:18.569Z,1.73
2018-05-25T02:44:46.096Z,2.83
2018-05-25T02:47:13.602Z,2.63
2018-05-25T02:49:41.086Z,1.07
2018-05-25T02:52:08.622Z,1.90
2018-05-25T02:54:36.110Z,1.53
2018-05-25T02:57:03.601Z,1.87
2018-05-25T02:59:31.111Z,2.60
2018-05-25T03:01:58.595Z,2.10
2018-05-25T03:04:26.094Z,2.73
2018-05-25T03:06:53.602Z,2.87
2018-05-25T03:09:21.083Z,1.70
2018-05-25T03:11:48.587Z,1.63
2018-05-25T03:14:16.146Z,1.40
2018-05-25T03:16:43.632Z,1.57
2018-05-25T03:19:11.116Z,2.27
2018-05-25T03:21:38.639Z,2.57
2018-05-25T03:24:06.136Z,4.57
2018-05-25T03:26:33.623Z,4.03
2018-05-25T03:29:01.926Z,6.80
2018-05-25T03:31:29.410Z,5.47
2018-05-25T03:33:56.895Z,7.77
2018-05-25T03:36:24.459Z,12.17
2018-05-25T03:38:51.990Z,11.37
2018-05-25T03:41:19.481Z,8.20
2018-05-25T03:43:47.007Z,7.63
2018-05-25T03:46:14.490Z,7.90
2018-05-25T03:48:41.971Z,6.63
2018-05-25T03:51:09.505Z,7.77
2018-05-25T03:53:36.990Z,5.97
2018-05-25T03:56:04.478Z,5.30
2018-05-25T03:58:43.919Z,4.57
2018-05-25T04:01:23.110Z,5.53
2018-05-25T04:03:50.638Z,5.23
2018-05-25T04:06:18.130Z,6.67
2018-05-25T04:08:45.630Z,5.80
2018-05-25T04:11:13.917Z,8.43
2018-05-25T04:13:41.407Z,5.03
2018-05-25T04:16:08.890Z,4.57
2018-05-25T04:18:36.423Z,2.50
2018-05-25T04:21:03.910Z,3.17
2018-05-25T04:23:31.402Z,2.37
2018-05-25T04:25:58.971Z,2.57
2018-05-25T04:28:26.472Z,2.70
2018-05-25T04:30:53.955Z,3.10
2018-05-25T04:33:21.483Z,2.33
2018-05-25T04:35:48.970Z,2.07
2018-05-25T04:38:16.562Z,2.53
2018-05-25T04:40:46.108Z,1.67
2018-05-25T04:43:13.650Z,3.20
2018-05-25T04:45:41.175Z,2.27
2018-05-25T04:48:08.693Z,1.60
2018-05-25T04:50:36.183Z,1.63
2018-05-25T04:53:03.675Z,2.57
2018-05-25T04:55:31.259Z,2.30
2018-05-25T04:57:58.747Z,2.47
2018-05-25T05:00:26.246Z,1.30
2018-05-25T05:02:53.782Z,3.47
2018-05-25T05:05:21.281Z,1.50
2018-05-25T05:07:49.538Z,2.80
2018-05-25T05:10:17.152Z,1.67
2018-05-25T05:12:44.646Z,1.27
2018-05-25T05:15:12.157Z,2.43
2018-05-25T05:17:39.678Z,3.80
2018-05-25T05:20:07.164Z,0.90
2018-05-25T05:22:35.418Z,1.20
2018-05-25T05:25:02.999Z,1.20
2018-05-25T05:27:30.507Z,1.97
2018-05-25T05:29:57.998Z,1.83
2018-05-25T05:32:25.529Z,2.17
2018-05-25T05:34:53.014Z,2.87
2018-05-25T05:37:20.502Z,1.50
2018-05-25T05:39:48.014Z,1.63
2018-05-25T05:42:15.498Z,2.63
2018-05-25T05:44:42.987Z,2.50
2018-05-25T05:47:11.270Z,1.20
2018-05-25T05:49:38.825Z,1.93
2018-05-25T05:52:07.076Z,1.20
2018-05-25T05:54:34.635Z,2.40
2018-05-25T05:57:02.135Z,2.20
2018-05-25T05:59:30.995Z,3.23
2018-05-25T06:01:58.527Z,2.30
2018-05-25T06:04:26.079Z,2.03
2018-05-25T06:06:53.524Z,1.40
2018-05-25T06:09:21.063Z,1.73
2018-05-25T06:11:49.320Z,1.30
2018-05-25T06:14:16.811Z,1.30
2018-05-25T06:16:45.096Z,4.43
2018-05-25T06:19:12.579Z,2.03
2018-05-25T06:21:40.063Z,1.33
2018-05-25T06:24:07.630Z,3.03
2018-05-25T06:26:35.110Z,3.92
2018-05-25T06:29:02.594Z,1.75
2018-05-25T06:31:30.130Z,3.40
2018-05-25T06:33:57.619Z,1.75
2018-05-25T06:36:25.106Z,2.58
2018-05-25T06:38:52.648Z,1.62
2018-05-25T06:41:20.142Z,2.35
2018-05-25T06:43:47.643Z,1.23
2018-05-25T06:46:15.934Z,1.83
2018-05-25T06:48:44.502Z,5.00
2018-05-25T06:51:12.031Z,1.48
2018-05-25T06:53:39.591Z,2.42
2018-05-25T06:56:07.101Z,3.00
2018-05-25T06:58:34.739Z,1.95
2018-05-25T07:01:03.107Z,1.87
2018-05-25T07:03:30.603Z,2.67
2018-05-25T07:05:58.863Z,1.17
2018-05-25T07:08:26.399Z,1.55
2018-05-25T07:10:53.906Z,1.58
2018-05-25T07:13:22.179Z,1.58
2018-05-25T07:15:49.728Z,1.30
2018-05-25T07:18:17.992Z,1.37
2018-05-25T07:20:45.495Z,1.25
2018-05-25T07:23:13.060Z,3.70
2018-05-25T07:25:41.022Z,0.90
2018-05-25T07:28:08.567Z,1.42
2018-05-25T07:30:36.888Z,3.65
2018-05-25T07:33:04.383Z,2.70
2018-05-25T07:35:31.946Z,1.58
2018-05-25T07:37:59.467Z,1.10
2018-05-25T07:40:26.968Z,1.85
2018-05-25T07:42:54.450Z,1.73
2018-05-25T07:45:22.019Z,1.60
2018-05-25T07:47:50.284Z,1.40
2018-05-25T07:50:17.787Z,1.00
2018-05-25T07:52:45.320Z,1.33
2018-05-25T07:55:13.582Z,1.30
2018-05-25T07:57:41.071Z,2.30
2018-05-25T08:00:08.603Z,1.25
2018-05-25T08:02:36.858Z,2.42
2018-05-25T08:05:04.344Z,1.25
2018-05-25T08:07:31.908Z,1.50
2018-05-25T08:10:00.186Z,1.02
2018-05-25T08:12:27.678Z,1.08
2018-05-25T08:14:55.198Z,1.23
2018-05-25T08:17:22.735Z,1.50
2018-05-25T08:19:50.226Z,3.45
2018-05-25T08:22:17.775Z,0.93
2018-05-25T08:24:45.280Z,1.17
2018-05-25T08:27:12.778Z,1.00
2018-05-25T08:29:40.350Z,1.23
2018-05-25T08:32:08.069Z,3.15
2018-05-25T08:34:39.487Z,1.20
2018-05-25T08:37:07.774Z,1.20
2018-05-25T08:39:35.267Z,0.90
2018-05-25T08:42:02.759Z,1.87
2018-05-25T08:44:30.282Z,1.50
2018-05-25T08:46:57.775Z,1.30
2018-05-25T08:49:25.291Z,0.95
2018-05-25T08:51:52.928Z,2.35
2018-05-25T08:54:21.193Z,0.95
2018-05-25T08:56:48.698Z,1.00
2018-05-25T08:59:16.235Z,1.10
2018-05-25T09:01:44.490Z,2.08
2018-05-25T09:04:11.982Z,1.15
2018-05-25T09:06:40.809Z,2.15
2018-05-25T09:09:08.298Z,1.58
2018-05-25T09:11:35.791Z,1.87
2018-05-25T09:14:03.303Z,1.35
2018-05-25T09:16:30.791Z,1.27
2018-05-25T09:18:58.274Z,0.77
2018-05-25T09:21:25.811Z,1.77
2018-05-25T09:23:53.303Z,0.73
2018-05-25T09:26:20.782Z,1.52
2018-05-25T09:28:48.346Z,1.10
2018-05-25T09:31:15.838Z,0.90
2018-05-25T09:33:44.230Z,1.00
2018-05-25T09:36:11.737Z,1.67
2018-05-25T09:38:39.242Z,0.80
2018-05-25T09:41:06.730Z,1.73
2018-05-25T09:43:35.036Z,1.35
2018-05-25T09:46:02.528Z,1.95
2018-05-25T09:48:30.028Z,1.00
2018-05-25T09:50:58.352Z,1.40
2018-05-25T09:53:25.836Z,1.37
2018-05-25T09:55:53.326Z,0.75
2018-05-25T09:58:21.622Z,1.10
2018-05-25T10:00:49.105Z,2.20
2018-05-25T10:03:16.604Z,1.10
2018-05-25T10:05:44.134Z,1.48
2018-05-25T10:08:11.618Z,1.45
2018-05-25T10:10:39.102Z,0.85
2018-05-25T10:13:06.611Z,0.90
2018-05-25T10:15:34.102Z,1.00
2018-05-25T10:18:01.596Z,1.25
2018-05-25T10:20:29.166Z,0.80
2018-05-25T10:22:56.655Z,0.90
2018-05-25T10:25:24.148Z,0.82
2018-05-25T10:27:51.686Z,1.00
2018-05-25T10:30:19.171Z,0.98
2018-05-25T10:32:46.658Z,1.25
2018-05-25T10:35:14.943Z,1.27
2018-05-25T10:37:43.369Z,0.80
2018-05-25T10:40:10.864Z,1.15
2018-05-25T10:42:38.419Z,0.70
2018-05-25T10:45:05.910Z,1.17
2018-05-25T10:47:33.398Z,0.70
2018-05-25T10:50:00.942Z,2.37
2018-05-25T10:52:28.431Z,0.93
2018-05-25T10:54:55.921Z,2.00
2018-05-25T10:57:23.446Z,2.45
2018-05-25T10:59:50.942Z,1.30
2018-05-25T11:02:18.441Z,0.85
2018-05-25T11:04:45.956Z,1.33
2018-05-25T11:07:13.443Z,2.17
2018-05-25T11:09:40.932Z,0.98
2018-05-25T11:12:08.494Z,1.55
2018-05-25T11:14:35.989Z,0.88
2018-05-25T11:17:03.480Z,2.28
2018-05-25T11:19:31.775Z,1.37
2018-05-25T11:21:59.264Z,1.17
2018-05-25T11:24:26.746Z,1.25
2018-05-25T11:26:54.265Z,2.28
2018-05-25T11:29:21.757Z,1.00
2018-05-25T11:31:49.245Z,2.67
2018-05-25T11:34:16.766Z,2.20
2018-05-25T11:36:44.270Z,1.87
2018-05-25T11:39:11.755Z,1.33
2018-05-25T11:41:39.264Z,1.85
2018-05-25T11:44:06.784Z,1.70
2018-05-25T11:46:34.278Z,1.17
2018-05-25T11:49:01.779Z,2.10
2018-05-25T11:51:29.314Z,0.82
2018-05-25T11:53:56.793Z,1.48
2018-05-25T11:56:25.046Z,2.62
2018-05-25T11:58:52.570Z,1.85
2018-05-25T12:01:20.058Z,2.28
2018-05-25T12:03:47.543Z,1.87
2018-05-25T12:06:15.066Z,1.40
2018-05-25T12:08:42.554Z,2.20
2018-05-25T12:11:10.043Z,1.42
2018-05-25T12:13:38.398Z,2.10
2018-05-25T12:16:05.934Z,1.20
2018-05-25T12:18:34.289Z,2.42
2018-05-25T12:21:01.818Z,1.62
2018-05-25T12:23:29.311Z,1.35
2018-05-25T12:25:56.806Z,2.20
2018-05-25T12:28:24.319Z,2.33
2018-05-25T12:30:51.807Z,1.73
2018-05-25T12:33:19.295Z,1.65
2018-05-25T12:35:46.892Z,2.60
2018-05-25T12:38:14.387Z,1.92
2018-05-25T12:40:41.878Z,1.40
2018-05-25T12:43:09.392Z,2.83
2018-05-25T12:45:36.951Z,5.30
2018-05-25T12:48:04.450Z,2.72
2018-05-25T12:50:31.992Z,1.70
2018-05-25T12:52:59.478Z,4.25
2018-05-25T12:55:26.958Z,3.37
2018-05-25T12:57:54.455Z,1.83
2018-05-25T13:00:21.949Z,2.25
2018-05-25T13:02:49.478Z,2.70
2018-05-25T13:05:17.551Z,4.47
2018-05-25T13:07:45.046Z,2.83
2018-05-25T13:10:12.568Z,2.87
2018-05-25T13:12:40.057Z,2.95
2018-05-25T13:15:07.543Z,4.55
2018-05-25T13:17:35.074Z,3.47
2018-05-25T13:20:02.558Z,3.20
2018-05-25T13:22:30.043Z,5.18
2018-05-25T13:24:58.318Z,3.15
2018-05-25T13:27:26.570Z,4.45
2018-05-25T13:29:54.098Z,6.75
2018-05-25T13:32:21.599Z,2.78
2018-05-25T13:34:49.086Z,4.03
2018-05-25T13:37:16.622Z,3.08
2018-05-25T13:39:44.123Z,6.05
2018-05-25T13:42:11.639Z,4.43
2018-05-25T13:44:39.232Z,4.47
2018-05-25T13:47:06.762Z,2.45
2018-05-25T13:49:34.258Z,2.37
2018-05-25T13:52:02.557Z,2.95
2018-05-25T13:54:30.052Z,4.18
2018-05-25T13:56:57.538Z,2.58
2018-05-25T13:59:25.831Z,2.15
2018-05-25T14:01:53.327Z,2.17
2018-05-25T14:04:20.811Z,3.90
2018-05-25T14:06:49.323Z,3.12
2018-05-25T14:09:16.816Z,2.05
2018-05-25T14:11:44.428Z,3.25
2018-05-25T14:14:11.885Z,2.80
2018-05-25T14:16:39.387Z,2.42
2018-05-25T14:19:06.922Z,5.53
2018-05-25T14:21:34.413Z,4.30
2018-05-25T14:24:01.903Z,3.05
2018-05-25T14:26:30.553Z,3.22
2018-05-25T14:28:58.065Z,3.50
2018-05-25T14:31:25.564Z,3.00
2018-05-25T14:33:53.836Z,4.45
2018-05-25T14:36:21.619Z,2.33
2018-05-25T14:38:49.199Z,2.85
2018-05-25T14:41:16.697Z,5.97
2018-05-25T14:43:44.219Z,3.12
2018-05-25T14:46:11.758Z,3.12
2018-05-25T14:48:39.247Z,3.35
2018-05-25T14:51:06.730Z,3.35
2018-05-25T14:53:34.231Z,2.45
2018-05-25T14:56:01.723Z,2.85
2018-05-25T14:58:29.220Z,4.75
2018-05-25T15:00:56.719Z,4.37
2018-05-25T15:03:25.021Z,3.67
2018-05-25T15:05:52.510Z,3.08
2018-05-25T15:08:20.004Z,4.62
2018-05-25T15:10:48.307Z,4.50
2018-05-25T15:13:15.807Z,3.28
2018-05-25T15:15:43.299Z,3.42
2018-05-25T15:18:11.767Z,3.00
2018-05-25T15:20:39.255Z,2.80
2018-05-25T15:23:06.795Z,5.28
2018-05-25T15:25:34.291Z,4.22
2018-05-25T15:28:01.786Z,3.92
2018-05-25T15:30:29.283Z,5.82
2018-05-25T15:32:57.563Z,4.85
2018-05-25T15:35:25.825Z,3.53
2018-05-25T15:37:53.318Z,6.03
2018-05-25T15:40:20.824Z,6.60
2018-05-25T15:42:48.358Z,3.78
2018-05-25T15:45:15.854Z,4.97
2018-05-25T15:47:43.358Z,3.22
2018-05-25T15:50:10.943Z,4.20
2018-05-25T15:52:38.430Z,3.25
2018-05-25T15:55:06.698Z,5.25
2018-05-25T15:57:34.322Z,4.37
2018-05-25T16:00:01.844Z,4.95
2018-05-25T16:02:29.345Z,4.55
2018-05-25T16:04:56.886Z,5.12
2018-05-25T16:07:24.388Z,4.18
2018-05-25T16:09:51.889Z,4.87
2018-05-25T16:12:19.404Z,5.28
2018-05-25T16:14:46.890Z,5.45
2018-05-25T16:17:14.375Z,4.20
2018-05-25T16:19:41.917Z,3.90
2018-05-25T16:22:09.401Z,4.57
2018-05-25T16:24:36.887Z,5.37
2018-05-25T16:27:04.408Z,7.25
2018-05-25T16:29:31.901Z,13.18
2018-05-25T16:31:59.390Z,14.85
2018-05-25T16:34:26.882Z,4.43
2018-05-25T16:36:54.375Z,5.12
2018-05-25T16:39:22.667Z,3.90
2018-05-25T16:41:50.245Z,3.25
2018-05-25T16:44:17.734Z,4.78
2018-05-25T16:46:45.235Z,3.60
2018-05-25T16:49:12.731Z,4.50
2018-05-25T16:51:40.273Z,2.90
2018-05-25T16:54:07.763Z,2.62
2018-05-25T16:56:35.329Z,2.78
2018-05-25T16:59:02.884Z,2.70
2018-05-25T17:01:30.391Z,3.10
2018-05-25T17:03:57.897Z,2.97
2018-05-25T17:06:25.464Z,2.87
2018-05-25T17:08:52.955Z,3.87
2018-05-25T17:11:20.442Z,3.17
2018-05-25T17:13:47.936Z,3.90
2018-05-25T17:16:15.474Z,4.78
2018-05-25T17:18:42.974Z,6.72
2018-05-25T17:21:11.419Z,2.65
2018-05-25T17:23:39.690Z,2.35
2018-05-25T17:26:07.333Z,2.35
2018-05-25T17:28:34.818Z,2.85
2018-05-25T17:31:02.342Z,3.33
2018-05-25T17:33:29.834Z,6.20
2018-05-25T17:35:57.323Z,4.47
2018-05-25T17:38:24.892Z,6.25
2018-05-25T17:40:52.379Z,3.90
2018-05-25T17:43:19.874Z,4.75
2018-05-25T17:45:48.136Z,3.90
2018-05-25T17:48:15.766Z,4.25
2018-05-25T17:50:43.298Z,3.05
2018-05-25T17:53:10.782Z,3.65
2018-05-25T17:55:38.266Z,3.87
2018-05-25T17:58:05.852Z,3.85
2018-05-25T18:00:33.786Z,7.05
2018-05-25T18:03:01.275Z,4.53
2018-05-25T18:05:29.566Z,4.22
2018-05-25T18:07:57.070Z,5.80
2018-05-25T18:10:24.598Z,4.68
2018-05-25T18:12:52.859Z,3.90
2018-05-25T18:15:20.444Z,3.80
2018-05-25T18:17:47.981Z,3.70
2018-05-25T18:20:15.478Z,3.50
2018-05-25T18:22:43.019Z,4.10
2018-05-25T18:25:10.543Z,3.37
2018-05-25T18:27:38.051Z,3.37
2018-05-25T18:30:05.695Z,2.80
2018-05-25T18:32:33.203Z,3.87
2018-05-25T18:35:01.490Z,4.93
2018-05-25T18:37:28.978Z,3.37
2018-05-25T18:39:56.462Z,4.20
2018-05-25T18:42:24.009Z,3.40
2018-05-25T18:44:51.504Z,3.28
2018-05-25T18:47:19.004Z,7.75
2018-05-25T18:49:46.519Z,5.72
2018-05-25T18:52:14.011Z,5.78
2018-05-25T18:54:41.510Z,6.95
2018-05-25T18:57:09.038Z,3.70
2018-05-25T18:59:36.522Z,4.22
2018-05-25T19:02:04.006Z,2.97
2018-05-25T19:04:32.306Z,3.75
2018-05-25T19:06:59.803Z,3.17
2018-05-25T19:09:27.307Z,2.97
2018-05-25T19:11:55.618Z,3.00
2018-05-25T19:14:23.203Z,3.28
2018-05-25T19:16:50.687Z,4.40
2018-05-25T19:19:18.210Z,3.67
2018-05-25T19:21:45.721Z,3.90
2018-05-25T19:24:13.210Z,4.35
2018-05-25T19:26:40.737Z,2.92
2018-05-25T19:29:08.998Z,5.40
2018-05-25T19:31:36.486Z,5.18
2018-05-25T19:34:04.069Z,3.08
2018-05-25T19:36:31.555Z,6.57
2018-05-25T19:38:59.890Z,6.22
2018-05-25T19:41:28.199Z,5.75
2018-05-25T19:43:55.688Z,6.60
2018-05-25T19:46:23.192Z,3.25
2018-05-25T19:48:51.504Z,3.65
2018-05-25T19:51:19.765Z,4.30
2018-05-25T19:53:47.267Z,4.10
2018-05-25T19:56:14.754Z,4.05
2018-05-25T19:58:42.293Z,5.25
2018-05-25T20:01:09.818Z,5.10
2018-05-25T20:03:37.310Z,3.30
2018-05-25T20:06:04.823Z,6.85
2018-05-25T20:08:32.310Z,3.30
2018-05-25T20:10:59.817Z,4.63
2018-05-25T20:13:27.371Z,6.22
2018-05-25T20:15:54.858Z,4.37
2018-05-25T20:18:23.110Z,3.55
2018-05-25T20:20:50.648Z,5.23
2018-05-25T20:23:18.179Z,4.57
2018-05-25T20:25:46.410Z,4.45
2018-05-25T20:28:13.906Z,4.57
2018-05-25T20:30:41.465Z,3.60
2018-05-25T20:33:08.956Z,5.37
2018-05-25T20:35:36.447Z,4.10
2018-05-25T20:38:03.963Z,3.53
2018-05-25T20:40:31.454Z,4.82
2018-05-25T20:42:58.954Z,6.93
2018-05-25T20:45:27.203Z,5.72
2018-05-25T20:47:54.719Z,5.53
2018-05-25T20:50:22.206Z,5.90
2018-05-25T20:52:49.742Z,5.57
2018-05-25T20:55:17.233Z,5.65
2018-05-25T20:57:44.730Z,4.32
2018-05-25T21:00:13.987Z,3.80
2018-05-25T21:02:41.466Z,7.03
2018-05-25T21:05:08.951Z,6.13
2018-05-25T21:07:37.218Z,3.97
2018-05-25T21:10:04.755Z,4.17
2018-05-25T21:12:32.250Z,6.37
2018-05-25T21:15:00.535Z,4.85
2018-05-25T21:17:28.030Z,5.22
2018-05-25T21:26:38.678Z,5.57
2018-05-25T21:29:06.226Z,7.40
2018-05-25T21:31:33.748Z,6.07
2018-05-25T21:34:01.233Z,5.37
2018-05-25T21:36:28.718Z,7.13
2018-05-25T21:38:56.247Z,5.07
2018-05-25T21:41:23.749Z,5.37
2018-05-25T21:43:51.249Z,4.93
2018-05-25T21:46:18.754Z,6.70
2018-05-25T21:48:46.263Z,7.25
2018-05-25T21:51:13.802Z,8.07
2018-05-25T21:53:42.131Z,5.63
2018-05-25T21:56:09.628Z,6.23
2018-05-25T21:58:37.142Z,5.30
2018-05-25T22:01:04.641Z,10.00
2018-05-25T22:03:32.127Z,5.47
2018-05-25T22:05:59.646Z,7.67
2018-05-25T22:08:27.145Z,6.82
2018-05-25T22:10:54.640Z,6.80
2018-05-25T22:13:22.138Z,6.73
2018-05-25T22:15:49.639Z,6.23
2018-05-25T22:18:17.933Z,6.07
2018-05-25T22:20:45.430Z,6.20
2018-05-25T22:23:12.922Z,6.37
2018-05-25T22:25:41.255Z,5.67
2018-05-25T22:28:08.744Z,5.72
2018-05-25T22:30:36.238Z,6.57
2018-05-25T22:33:04.507Z,7.47
2018-05-25T22:35:31.996Z,8.70
2018-05-25T22:37:59.552Z,8.80
2018-05-25T22:40:27.034Z,8.88
2018-05-25T22:43:06.270Z,5.43
2018-05-25T22:45:45.654Z,5.70
2018-05-25T22:48:24.990Z,6.73
2018-05-25T22:51:04.359Z,4.77
2018-05-25T22:53:37.346Z,6.77
2018-05-25T22:56:04.855Z,4.65
2018-05-25T22:58:32.462Z,5.63
2018-05-25T23:00:59.922Z,8.57
2018-05-25T23:03:27.419Z,10.95
2018-05-25T23:05:54.920Z,4.73
2018-05-25T23:08:22.490Z,5.03
2018-05-25T23:10:50.930Z,4.15
2018-05-25T23:13:18.428Z,5.47
2018-05-25T23:15:45.951Z,6.53
2018-05-25T23:18:13.502Z,4.50
2018-05-25T23:20:40.990Z,4.27
2018-05-25T23:23:08.483Z,5.20
2018-05-25T23:25:36.807Z,4.32
2018-05-25T23:28:04.316Z,5.23
2018-05-25T23:30:32.647Z,8.27
2018-05-25T23:33:00.160Z,4.50
2018-05-25T23:35:28.419Z,8.07
2018-05-25T23:37:55.950Z,5.50
2018-05-25T23:40:23.443Z,5.77
2018-05-25T23:42:50.945Z,7.93
2018-05-25T23:45:18.484Z,8.40
2018-05-25T23:47:45.979Z,5.17
2018-05-25T23:50:13.778Z,4.23
2018-05-25T23:52:41.351Z,4.67
2018-05-25T23:55:08.847Z,4.20
2018-05-25T23:57:36.378Z,4.87
